< Typhoon 195806 1958 Season Typhoon 195808 >
Typhoon 195807 (SUSAN)
General InformationTrack Information on Google Maps || Disaster Info.ResourceGoogle EarthGE AnimationAtom FeedGeoJSON
Detalied Best Track (Time Zone = UTC)
Year Month Day Hour Lat. Long. Pressure (hPa) Wind (kt) Class Image Chart
1958 6 13 00 12.0 145.5 1005 0 2 -- Chart
1958 6 13 06 12.8 145.0 1000 0 2 -- Chart
1958 6 13 12 14.0 144.5 1000 0 2 -- Chart
1958 6 13 18 15.0 144.0 1000 0 2 -- Chart
1958 6 14 00 16.0 143.3 995 0 9 -- Chart
1958 6 14 06 17.2 142.8 990 0 9 -- Chart
1958 6 14 12 17.8 142.3 990 0 9 -- Chart
1958 6 14 18 18.8 142.0 990 0 9 -- Chart
1958 6 15 00 19.9 141.8 990 0 9 -- Chart
1958 6 15 06 20.7 142.0 985 0 9 -- Chart
1958 6 15 12 21.7 142.1 985 0 9 -- Chart
1958 6 15 18 22.8 142.2 985 0 9 -- Chart
1958 6 16 00 24.1 142.5 990 0 9 -- Chart
1958 6 16 06 25.8 143.2 990 0 9 -- Chart
1958 6 16 12 27.6 145.0 990 0 9 -- Chart
1958 6 16 18 29.0 146.0 995 0 9 -- Chart
1958 6 17 00 30.5 148.2 1000 0 9 -- Chart
1958 6 17 06 32.0 150.0 998 0 9 -- Chart
1958 6 17 12 35.0 153.0 998 0 9 -- Chart
1958 6 17 18 37.0 157.0 998 0 9 -- Chart
1958 6 18 00 38.0 160.2 1006 0 6 -- Chart
1958 6 18 06 39.4 166.0 1002 0 6 -- Chart
1958 6 18 12 40.0 172.4 1006 0 6 -- Chart
1958 6 18 18 41.0 176.0 1004 0 6 -- Chart
Japan Meteorological Agency Best Track Data | Correction Date : 1989-06-01
< Typhoon 195806 1958 Season Typhoon 195808 >

Help